Saltburn-by-the-Sea, United Kingdom
Current Conditions -  °F | °C
As of 4:20 PM on Thursday 27 Nov 2014 (Local Time) from EGNV Reporting Station
Haze Haze  
Wind Chill:   Ceiling: 900
Heat Index:   Visibility: 1.8mi
Dew Point:   Wind: 2mph
Humidity: 93%   Direction: 260°W
Pressure: 29.59"   Gusts: NA
Location:  54.58°N, 0.97°W
Report Text: EGNV 271620Z 26002KT 3000 BR SCT003 BKN009 09/08 Q1002
Loading
Personal Weather Stations






























Interactive Weather Map New forecast layout! Learn more

10-Day Weather Forecast

Advertisements
Track Severe Weather on mobile